sensor_id;sensor_type;location;lat;lon;timestamp;P1;durP1;ratioP1;P2;durP2;ratioP2
21494;SDS011;10909;53.590;10.054;2023-01-10T00:00:42;9.90;;;5.70;;
21494;SDS011;10909;53.590;10.054;2023-01-10T00:03:08;10.00;;;6.30;;
21494;SDS011;10909;53.590;10.054;2023-01-10T00:05:41;7.20;;;6.20;;
21494;SDS011;10909;53.590;10.054;2023-01-10T00:08:15;6.27;;;5.60;;
21494;SDS011;10909;53.590;10.054;2023-01-10T00:10:44;9.57;;;5.60;;
21494;SDS011;10909;53.590;10.054;2023-01-10T00:13:15;7.63;;;4.77;;
21494;SDS011;10909;53.590;10.054;2023-01-10T00:15:52;8.40;;;4.90;;
21494;SDS011;10909;53.590;10.054;2023-01-10T00:18:20;8.10;;;4.80;;
21494;SDS011;10909;53.590;10.054;2023-01-10T00:20:51;7.37;;;4.87;;
21494;SDS011;10909;53.590;10.054;2023-01-10T00:23:16;9.97;;;5.27;;
21494;SDS011;10909;53.590;10.054;2023-01-10T00:25:43;9.60;;;5.00;;
21494;SDS011;10909;53.590;10.054;2023-01-10T00:28:10;7.40;;;4.37;;
21494;SDS011;10909;53.590;10.054;2023-01-10T00:30:48;7.53;;;4.50;;
21494;SDS011;10909;53.590;10.054;2023-01-10T00:33:31;10.53;;;4.87;;
21494;SDS011;10909;53.590;10.054;2023-01-10T00:35:58;9.33;;;4.23;;
21494;SDS011;10909;53.590;10.054;2023-01-10T00:38:24;9.27;;;3.93;;
21494;SDS011;10909;53.590;10.054;2023-01-10T00:40:50;11.47;;;4.53;;
21494;SDS011;10909;53.590;10.054;2023-01-10T00:43:16;7.47;;;3.80;;
21494;SDS011;10909;53.590;10.054;2023-01-10T00:46:02;9.70;;;4.13;;
21494;SDS011;10909;53.590;10.054;2023-01-10T00:48:27;6.67;;;3.93;;
21494;SDS011;10909;53.590;10.054;2023-01-10T00:50:53;7.47;;;3.67;;
21494;SDS011;10909;53.590;10.054;2023-01-10T00:53:20;8.63;;;4.43;;
21494;SDS011;10909;53.590;10.054;2023-01-10T00:55:46;8.57;;;3.80;;
21494;SDS011;10909;53.590;10.054;2023-01-10T00:58:12;13.30;;;4.40;;
21494;SDS011;10909;53.590;10.054;2023-01-10T01:00:39;9.97;;;3.90;;
21494;SDS011;10909;53.590;10.054;2023-01-10T01:03:05;8.73;;;3.70;;
21494;SDS011;10909;53.590;10.054;2023-01-10T01:05:32;5.97;;;3.30;;
21494;SDS011;10909;53.590;10.054;2023-01-10T01:07:58;9.67;;;4.50;;
21494;SDS011;10909;53.590;10.054;2023-01-10T01:10:23;8.20;;;3.50;;
21494;SDS011;10909;53.590;10.054;2023-01-10T01:12:52;8.37;;;4.20;;
21494;SDS011;10909;53.590;10.054;2023-01-10T01:15:24;9.27;;;3.20;;
21494;SDS011;10909;53.590;10.054;2023-01-10T01:17:51;6.23;;;2.90;;
21494;SDS011;10909;53.590;10.054;2023-01-10T01:20:17;10.97;;;3.57;;
21494;SDS011;10909;53.590;10.054;2023-01-10T01:22:45;7.87;;;3.47;;
21494;SDS011;10909;53.590;10.054;2023-01-10T01:25:11;5.53;;;3.13;;
21494;SDS011;10909;53.590;10.054;2023-01-10T01:27:39;6.83;;;3.87;;
21494;SDS011;10909;53.590;10.054;2023-01-10T01:30:07;9.83;;;4.00;;
21494;SDS011;10909;53.590;10.054;2023-01-10T01:32:35;8.07;;;3.47;;
21494;SDS011;10909;53.590;10.054;2023-01-10T01:35:04;4.90;;;3.10;;
21494;SDS011;10909;53.590;10.054;2023-01-10T01:37:32;5.43;;;3.20;;
21494;SDS011;10909;53.590;10.054;2023-01-10T01:40:00;5.90;;;3.20;;
21494;SDS011;10909;53.590;10.054;2023-01-10T01:42:39;6.07;;;3.60;;
21494;SDS011;10909;53.590;10.054;2023-01-10T01:47:46;6.43;;;3.40;;
21494;SDS011;10909;53.590;10.054;2023-01-10T01:50:25;6.80;;;3.40;;
21494;SDS011;10909;53.590;10.054;2023-01-10T01:53:07;5.87;;;3.53;;
21494;SDS011;10909;53.590;10.054;2023-01-10T01:55:38;6.07;;;3.00;;
21494;SDS011;10909;53.590;10.054;2023-01-10T01:58:14;6.03;;;2.77;;
21494;SDS011;10909;53.590;10.054;2023-01-10T02:00:42;9.20;;;3.50;;
21494;SDS011;10909;53.590;10.054;2023-01-10T02:03:10;6.37;;;3.33;;
21494;SDS011;10909;53.590;10.054;2023-01-10T02:05:37;11.63;;;3.90;;
21494;SDS011;10909;53.590;10.054;2023-01-10T02:08:04;8.53;;;4.07;;
21494;SDS011;10909;53.590;10.054;2023-01-10T02:10:39;8.10;;;4.07;;
21494;SDS011;10909;53.590;10.054;2023-01-10T02:13:26;4.00;;;3.40;;
21494;SDS011;10909;53.590;10.054;2023-01-10T02:15:52;5.93;;;3.37;;
21494;SDS011;10909;53.590;10.054;2023-01-10T02:18:18;7.23;;;4.00;;
21494;SDS011;10909;53.590;10.054;2023-01-10T02:31:51;5.33;;;3.00;;
21494;SDS011;10909;53.590;10.054;2023-01-10T02:40:06;6.37;;;3.67;;
21494;SDS011;10909;53.590;10.054;2023-01-10T02:43:06;6.47;;;3.57;;
21494;SDS011;10909;53.590;10.054;2023-01-10T02:45:46;5.10;;;3.40;;
21494;SDS011;10909;53.590;10.054;2023-01-10T02:48:31;6.33;;;3.70;;
21494;SDS011;10909;53.590;10.054;2023-01-10T02:51:02;5.90;;;3.37;;
21494;SDS011;10909;53.590;10.054;2023-01-10T02:53:42;6.13;;;3.50;;
21494;SDS011;10909;53.590;10.054;2023-01-10T03:07:33;9.23;;;3.87;;
21494;SDS011;10909;53.590;10.054;2023-01-10T03:10:09;7.87;;;4.03;;
21494;SDS011;10909;53.590;10.054;2023-01-10T03:13:05;5.70;;;3.37;;
21494;SDS011;10909;53.590;10.054;2023-01-10T03:15:38;6.70;;;3.70;;
21494;SDS011;10909;53.590;10.054;2023-01-10T03:18:07;8.07;;;3.83;;
21494;SDS011;10909;53.590;10.054;2023-01-10T03:20:41;8.13;;;3.43;;
21494;SDS011;10909;53.590;10.054;2023-01-10T03:23:09;8.40;;;3.97;;
21494;SDS011;10909;53.590;10.054;2023-01-10T03:25:37;8.53;;;4.20;;
21494;SDS011;10909;53.590;10.054;2023-01-10T03:28:10;6.50;;;3.83;;
21494;SDS011;10909;53.590;10.054;2023-01-10T03:33:17;8.17;;;3.67;;
21494;SDS011;10909;53.590;10.054;2023-01-10T03:36:15;5.77;;;3.30;;
21494;SDS011;10909;53.590;10.054;2023-01-10T03:39:10;6.33;;;3.43;;
21494;SDS011;10909;53.590;10.054;2023-01-10T03:41:58;5.20;;;3.00;;
21494;SDS011;10909;53.590;10.054;2023-01-10T03:49:47;6.37;;;3.07;;
21494;SDS011;10909;53.590;10.054;2023-01-10T03:52:18;4.40;;;3.10;;
21494;SDS011;10909;53.590;10.054;2023-01-10T03:54:46;6.50;;;3.00;;
21494;SDS011;10909;53.590;10.054;2023-01-10T03:57:18;7.50;;;3.10;;
21494;SDS011;10909;53.590;10.054;2023-01-10T03:59:55;6.33;;;3.03;;
21494;SDS011;10909;53.590;10.054;2023-01-10T04:02:26;3.97;;;2.70;;
21494;SDS011;10909;53.590;10.054;2023-01-10T04:04:55;6.73;;;2.93;;
21494;SDS011;10909;53.590;10.054;2023-01-10T04:07:23;6.53;;;2.93;;
21494;SDS011;10909;53.590;10.054;2023-01-10T04:09:49;5.27;;;3.17;;
21494;SDS011;10909;53.590;10.054;2023-01-10T04:12:17;5.33;;;3.57;;
21494;SDS011;10909;53.590;10.054;2023-01-10T04:14:44;8.73;;;3.30;;
21494;SDS011;10909;53.590;10.054;2023-01-10T04:17:11;4.67;;;2.60;;
21494;SDS011;10909;53.590;10.054;2023-01-10T04:19:39;3.83;;;2.70;;
21494;SDS011;10909;53.590;10.054;2023-01-10T04:22:09;6.00;;;3.47;;
21494;SDS011;10909;53.590;10.054;2023-01-10T04:24:37;3.90;;;2.70;;
21494;SDS011;10909;53.590;10.054;2023-01-10T04:27:09;7.17;;;3.27;;
21494;SDS011;10909;53.590;10.054;2023-01-10T04:29:46;5.80;;;3.07;;
21494;SDS011;10909;53.590;10.054;2023-01-10T04:32:11;4.90;;;2.83;;
21494;SDS011;10909;53.590;10.054;2023-01-10T04:34:37;3.83;;;2.50;;
21494;SDS011;10909;53.590;10.054;2023-01-10T04:37:03;5.57;;;3.20;;
21494;SDS011;10909;53.590;10.054;2023-01-10T04:39:31;3.63;;;2.40;;
21494;SDS011;10909;53.590;10.054;2023-01-10T04:41:59;6.20;;;2.60;;
21494;SDS011;10909;53.590;10.054;2023-01-10T04:44:24;4.33;;;2.20;;
21494;SDS011;10909;53.590;10.054;2023-01-10T04:46:50;3.93;;;2.53;;
21494;SDS011;10909;53.590;10.054;2023-01-10T04:49:16;5.43;;;2.80;;
21494;SDS011;10909;53.590;10.054;2023-01-10T04:51:41;7.03;;;2.77;;
21494;SDS011;10909;53.590;10.054;2023-01-10T04:54:12;3.50;;;2.37;;
21494;SDS011;10909;53.590;10.054;2023-01-10T04:56:43;5.23;;;2.50;;
21494;SDS011;10909;53.590;10.054;2023-01-10T04:59:12;7.00;;;2.33;;
21494;SDS011;10909;53.590;10.054;2023-01-10T05:01:38;5.07;;;2.10;;
21494;SDS011;10909;53.590;10.054;2023-01-10T05:04:06;4.70;;;2.50;;
21494;SDS011;10909;53.590;10.054;2023-01-10T05:06:31;4.17;;;2.60;;
21494;SDS011;10909;53.590;10.054;2023-01-10T05:08:57;2.87;;;2.00;;
21494;SDS011;10909;53.590;10.054;2023-01-10T05:11:23;5.53;;;2.10;;
21494;SDS011;10909;53.590;10.054;2023-01-10T05:13:50;5.23;;;2.40;;
21494;SDS011;10909;53.590;10.054;2023-01-10T05:16:18;6.53;;;2.43;;
21494;SDS011;10909;53.590;10.054;2023-01-10T05:18:44;4.60;;;2.27;;
21494;SDS011;10909;53.590;10.054;2023-01-10T05:21:11;4.50;;;2.27;;
21494;SDS011;10909;53.590;10.054;2023-01-10T05:23:38;6.37;;;2.57;;
21494;SDS011;10909;53.590;10.054;2023-01-10T05:26:07;6.23;;;2.57;;
21494;SDS011;10909;53.590;10.054;2023-01-10T05:28:37;7.07;;;2.20;;
21494;SDS011;10909;53.590;10.054;2023-01-10T05:31:13;5.97;;;2.30;;
21494;SDS011;10909;53.590;10.054;2023-01-10T05:33:45;6.53;;;2.33;;
21494;SDS011;10909;53.590;10.054;2023-01-10T05:36:12;6.93;;;2.07;;
21494;SDS011;10909;53.590;10.054;2023-01-10T05:38:38;4.70;;;2.27;;
21494;SDS011;10909;53.590;10.054;2023-01-10T05:41:04;4.97;;;2.53;;
21494;SDS011;10909;53.590;10.054;2023-01-10T05:43:30;6.43;;;2.33;;
21494;SDS011;10909;53.590;10.054;2023-01-10T05:45:56;5.60;;;2.10;;
21494;SDS011;10909;53.590;10.054;2023-01-10T05:48:22;6.07;;;2.50;;
21494;SDS011;10909;53.590;10.054;2023-01-10T05:50:56;6.47;;;2.30;;
21494;SDS011;10909;53.590;10.054;2023-01-10T05:53:22;8.07;;;2.40;;
21494;SDS011;10909;53.590;10.054;2023-01-10T05:55:55;3.43;;;2.03;;
21494;SDS011;10909;53.590;10.054;2023-01-10T05:58:24;4.03;;;2.07;;
21494;SDS011;10909;53.590;10.054;2023-01-10T06:00:50;4.87;;;2.17;;
21494;SDS011;10909;53.590;10.054;2023-01-10T06:03:17;5.23;;;2.17;;
21494;SDS011;10909;53.590;10.054;2023-01-10T06:05:43;6.40;;;2.10;;
21494;SDS011;10909;53.590;10.054;2023-01-10T06:08:09;5.40;;;2.00;;
21494;SDS011;10909;53.590;10.054;2023-01-10T06:10:36;4.17;;;1.80;;
21494;SDS011;10909;53.590;10.054;2023-01-10T06:13:08;7.27;;;2.07;;
21494;SDS011;10909;53.590;10.054;2023-01-10T06:15:34;6.30;;;1.90;;
21494;SDS011;10909;53.590;10.054;2023-01-10T06:18:01;3.90;;;2.00;;
21494;SDS011;10909;53.590;10.054;2023-01-10T06:20:27;6.60;;;2.03;;
21494;SDS011;10909;53.590;10.054;2023-01-10T06:22:53;4.90;;;1.87;;
21494;SDS011;10909;53.590;10.054;2023-01-10T06:25:19;5.23;;;2.50;;
21494;SDS011;10909;53.590;10.054;2023-01-10T06:27:45;6.83;;;2.10;;
21494;SDS011;10909;53.590;10.054;2023-01-10T06:30:11;6.23;;;2.43;;
21494;SDS011;10909;53.590;10.054;2023-01-10T06:32:40;5.77;;;1.97;;
21494;SDS011;10909;53.590;10.054;2023-01-10T06:35:14;6.67;;;2.03;;
21494;SDS011;10909;53.590;10.054;2023-01-10T06:37:44;7.33;;;2.70;;
21494;SDS011;10909;53.590;10.054;2023-01-10T06:40:10;4.93;;;2.27;;
21494;SDS011;10909;53.590;10.054;2023-01-10T06:42:38;3.83;;;2.00;;
21494;SDS011;10909;53.590;10.054;2023-01-10T06:45:05;8.17;;;2.50;;
21494;SDS011;10909;53.590;10.054;2023-01-10T06:47:31;7.00;;;2.40;;
21494;SDS011;10909;53.590;10.054;2023-01-10T06:49:56;4.50;;;2.03;;
21494;SDS011;10909;53.590;10.054;2023-01-10T06:52:22;5.27;;;1.77;;
21494;SDS011;10909;53.590;10.054;2023-01-10T06:54:55;11.40;;;2.73;;
21494;SDS011;10909;53.590;10.054;2023-01-10T06:57:21;7.90;;;2.17;;
21494;SDS011;10909;53.590;10.054;2023-01-10T06:59:50;4.97;;;2.10;;
21494;SDS011;10909;53.590;10.054;2023-01-10T07:02:21;5.47;;;2.17;;
21494;SDS011;10909;53.590;10.054;2023-01-10T07:04:54;5.97;;;2.40;;
21494;SDS011;10909;53.590;10.054;2023-01-10T07:07:28;8.17;;;2.50;;
21494;SDS011;10909;53.590;10.054;2023-01-10T07:09:55;5.23;;;2.97;;
21494;SDS011;10909;53.590;10.054;2023-01-10T07:12:23;5.60;;;2.40;;
21494;SDS011;10909;53.590;10.054;2023-01-10T07:14:55;6.03;;;2.23;;
21494;SDS011;10909;53.590;10.054;2023-01-10T07:17:21;4.87;;;2.13;;
21494;SDS011;10909;53.590;10.054;2023-01-10T07:19:47;5.40;;;2.10;;
21494;SDS011;10909;53.590;10.054;2023-01-10T07:22:14;5.23;;;2.47;;
21494;SDS011;10909;53.590;10.054;2023-01-10T07:24:41;4.57;;;2.03;;
21494;SDS011;10909;53.590;10.054;2023-01-10T07:27:07;3.47;;;1.90;;
21494;SDS011;10909;53.590;10.054;2023-01-10T07:29:33;4.50;;;2.17;;
21494;SDS011;10909;53.590;10.054;2023-01-10T07:31:59;8.17;;;2.57;;
21494;SDS011;10909;53.590;10.054;2023-01-10T07:34:26;5.63;;;2.60;;
21494;SDS011;10909;53.590;10.054;2023-01-10T07:36:51;6.07;;;2.40;;
21494;SDS011;10909;53.590;10.054;2023-01-10T07:39:17;9.03;;;2.87;;
21494;SDS011;10909;53.590;10.054;2023-01-10T07:41:50;7.13;;;2.97;;
21494;SDS011;10909;53.590;10.054;2023-01-10T07:44:19;6.27;;;2.50;;
21494;SDS011;10909;53.590;10.054;2023-01-10T07:46:44;5.13;;;2.20;;
21494;SDS011;10909;53.590;10.054;2023-01-10T07:49:11;6.13;;;2.40;;
21494;SDS011;10909;53.590;10.054;2023-01-10T07:51:40;9.00;;;2.77;;
21494;SDS011;10909;53.590;10.054;2023-01-10T07:54:07;6.27;;;2.40;;
21494;SDS011;10909;53.590;10.054;2023-01-10T07:56:33;6.63;;;2.50;;
21494;SDS011;10909;53.590;10.054;2023-01-10T07:59:01;7.33;;;2.70;;
21494;SDS011;10909;53.590;10.054;2023-01-10T08:01:32;6.07;;;2.23;;
21494;SDS011;10909;53.590;10.054;2023-01-10T08:04:02;8.07;;;3.37;;
21494;SDS011;10909;53.590;10.054;2023-01-10T08:06:38;6.63;;;3.17;;
21494;SDS011;10909;53.590;10.054;2023-01-10T08:09:03;8.63;;;2.70;;
21494;SDS011;10909;53.590;10.054;2023-01-10T08:11:29;5.67;;;2.70;;
21494;SDS011;10909;53.590;10.054;2023-01-10T08:13:55;8.13;;;3.00;;
21494;SDS011;10909;53.590;10.054;2023-01-10T08:16:23;5.83;;;3.10;;
21494;SDS011;10909;53.590;10.054;2023-01-10T08:18:49;6.20;;;3.20;;
21494;SDS011;10909;53.590;10.054;2023-01-10T08:21:15;6.73;;;3.50;;
21494;SDS011;10909;53.590;10.054;2023-01-10T08:23:41;7.57;;;3.13;;
21494;SDS011;10909;53.590;10.054;2023-01-10T08:26:06;6.33;;;3.17;;
21494;SDS011;10909;53.590;10.054;2023-01-10T08:28:32;4.97;;;2.83;;
21494;SDS011;10909;53.590;10.054;2023-01-10T08:30:58;8.47;;;3.20;;
21494;SDS011;10909;53.590;10.054;2023-01-10T08:33:33;9.70;;;3.40;;
21494;SDS011;10909;53.590;10.054;2023-01-10T08:36:05;8.67;;;3.60;;
21494;SDS011;10909;53.590;10.054;2023-01-10T08:38:46;8.53;;;4.03;;
21494;SDS011;10909;53.590;10.054;2023-01-10T08:41:21;8.10;;;3.57;;
21494;SDS011;10909;53.590;10.054;2023-01-10T08:44:03;10.37;;;3.40;;
21494;SDS011;10909;53.590;10.054;2023-01-10T08:46:29;5.57;;;3.07;;
21494;SDS011;10909;53.590;10.054;2023-01-10T08:48:57;6.70;;;3.50;;
21494;SDS011;10909;53.590;10.054;2023-01-10T08:51:30;6.87;;;3.00;;
21494;SDS011;10909;53.590;10.054;2023-01-10T08:53:57;7.33;;;2.90;;
21494;SDS011;10909;53.590;10.054;2023-01-10T08:56:24;6.80;;;3.50;;
21494;SDS011;10909;53.590;10.054;2023-01-10T08:58:59;8.47;;;3.80;;
21494;SDS011;10909;53.590;10.054;2023-01-10T09:01:41;6.63;;;3.30;;
21494;SDS011;10909;53.590;10.054;2023-01-10T09:04:09;8.40;;;3.50;;
21494;SDS011;10909;53.590;10.054;2023-01-10T09:06:37;9.43;;;3.87;;
21494;SDS011;10909;53.590;10.054;2023-01-10T09:09:08;9.10;;;3.60;;
21494;SDS011;10909;53.590;10.054;2023-01-10T09:11:46;8.33;;;3.37;;
21494;SDS011;10909;53.590;10.054;2023-01-10T09:14:16;7.03;;;3.97;;
21494;SDS011;10909;53.590;10.054;2023-01-10T09:16:42;10.30;;;4.20;;
21494;SDS011;10909;53.590;10.054;2023-01-10T09:19:11;8.27;;;4.30;;
21494;SDS011;10909;53.590;10.054;2023-01-10T09:21:42;10.47;;;4.77;;
21494;SDS011;10909;53.590;10.054;2023-01-10T09:24:13;5.33;;;4.00;;
21494;SDS011;10909;53.590;10.054;2023-01-10T09:26:44;7.87;;;4.20;;
21494;SDS011;10909;53.590;10.054;2023-01-10T09:29:15;7.60;;;3.97;;
21494;SDS011;10909;53.590;10.054;2023-01-10T09:31:46;6.10;;;4.03;;
21494;SDS011;10909;53.590;10.054;2023-01-10T09:34:17;8.00;;;4.80;;
21494;SDS011;10909;53.590;10.054;2023-01-10T09:36:48;11.60;;;4.63;;
21494;SDS011;10909;53.590;10.054;2023-01-10T09:39:19;10.30;;;4.03;;
21494;SDS011;10909;53.590;10.054;2023-01-10T09:44:47;5.93;;;3.63;;
21494;SDS011;10909;53.590;10.054;2023-01-10T09:47:37;6.87;;;4.13;;
21494;SDS011;10909;53.590;10.054;2023-01-10T09:50:18;10.27;;;4.17;;
21494;SDS011;10909;53.590;10.054;2023-01-10T09:52:56;8.87;;;4.03;;
21494;SDS011;10909;53.590;10.054;2023-01-10T09:55:54;8.77;;;4.57;;
21494;SDS011;10909;53.590;10.054;2023-01-10T09:58:24;10.73;;;4.67;;
21494;SDS011;10909;53.590;10.054;2023-01-10T10:06:22;8.60;;;4.87;;
21494;SDS011;10909;53.590;10.054;2023-01-10T10:08:50;8.47;;;4.67;;
21494;SDS011;10909;53.590;10.054;2023-01-10T10:11:45;5.63;;;4.20;;
21494;SDS011;10909;53.590;10.054;2023-01-10T10:17:23;8.63;;;4.60;;
21494;SDS011;10909;53.590;10.054;2023-01-10T10:23:14;11.10;;;4.93;;
21494;SDS011;10909;53.590;10.054;2023-01-10T10:31:43;10.37;;;4.97;;
21494;SDS011;10909;53.590;10.054;2023-01-10T10:34:49;7.93;;;4.67;;
21494;SDS011;10909;53.590;10.054;2023-01-10T10:37:31;10.73;;;4.57;;
21494;SDS011;10909;53.590;10.054;2023-01-10T10:40:16;7.30;;;5.37;;
21494;SDS011;10909;53.590;10.054;2023-01-10T10:42:50;10.57;;;5.17;;
21494;SDS011;10909;53.590;10.054;2023-01-10T10:45:25;9.27;;;5.40;;
21494;SDS011;10909;53.590;10.054;2023-01-10T10:53:49;10.60;;;6.30;;
21494;SDS011;10909;53.590;10.054;2023-01-10T10:56:22;11.07;;;5.47;;
21494;SDS011;10909;53.590;10.054;2023-01-10T10:58:53;11.13;;;6.10;;
21494;SDS011;10909;53.590;10.054;2023-01-10T11:01:24;12.20;;;6.20;;
21494;SDS011;10909;53.590;10.054;2023-01-10T11:03:57;12.13;;;6.53;;
21494;SDS011;10909;53.590;10.054;2023-01-10T11:06:32;10.97;;;5.57;;
21494;SDS011;10909;53.590;10.054;2023-01-10T11:09:03;8.57;;;5.13;;
21494;SDS011;10909;53.590;10.054;2023-01-10T11:14:06;9.40;;;5.37;;
21494;SDS011;10909;53.590;10.054;2023-01-10T11:16:45;13.13;;;5.90;;
21494;SDS011;10909;53.590;10.054;2023-01-10T11:19:23;8.80;;;5.47;;
21494;SDS011;10909;53.590;10.054;2023-01-10T11:22:12;10.93;;;5.00;;
21494;SDS011;10909;53.590;10.054;2023-01-10T11:24:49;9.77;;;5.33;;
21494;SDS011;10909;53.590;10.054;2023-01-10T11:27:20;11.50;;;5.57;;
21494;SDS011;10909;53.590;10.054;2023-01-10T11:29:50;8.40;;;5.27;;
21494;SDS011;10909;53.590;10.054;2023-01-10T11:32:34;9.67;;;5.37;;
21494;SDS011;10909;53.590;10.054;2023-01-10T11:35:24;8.63;;;5.30;;
21494;SDS011;10909;53.590;10.054;2023-01-10T11:38:04;9.47;;;5.37;;
21494;SDS011;10909;53.590;10.054;2023-01-10T11:40:53;13.73;;;4.87;;
21494;SDS011;10909;53.590;10.054;2023-01-10T11:43:27;9.63;;;5.30;;
21494;SDS011;10909;53.590;10.054;2023-01-10T11:46:11;9.57;;;4.93;;
21494;SDS011;10909;53.590;10.054;2023-01-10T11:48:50;9.60;;;5.50;;
21494;SDS011;10909;53.590;10.054;2023-01-10T11:51:51;6.87;;;4.40;;
21494;SDS011;10909;53.590;10.054;2023-01-10T11:54:23;8.47;;;4.60;;
21494;SDS011;10909;53.590;10.054;2023-01-10T11:56:59;15.37;;;5.77;;
21494;SDS011;10909;53.590;10.054;2023-01-10T11:59:59;8.77;;;4.80;;
21494;SDS011;10909;53.590;10.054;2023-01-10T12:02:31;7.77;;;4.40;;
21494;SDS011;10909;53.590;10.054;2023-01-10T12:05:02;9.50;;;5.13;;
21494;SDS011;10909;53.590;10.054;2023-01-10T12:07:53;8.40;;;5.20;;
21494;SDS011;10909;53.590;10.054;2023-01-10T12:10:20;8.13;;;4.70;;
21494;SDS011;10909;53.590;10.054;2023-01-10T12:12:57;9.73;;;4.87;;
21494;SDS011;10909;53.590;10.054;2023-01-10T12:15:42;8.60;;;4.93;;
21494;SDS011;10909;53.590;10.054;2023-01-10T12:18:10;10.40;;;4.90;;
21494;SDS011;10909;53.590;10.054;2023-01-10T12:20:50;10.13;;;5.53;;
21494;SDS011;10909;53.590;10.054;2023-01-10T12:23:20;10.70;;;4.53;;
21494;SDS011;10909;53.590;10.054;2023-01-10T12:25:50;9.23;;;5.47;;
21494;SDS011;10909;53.590;10.054;2023-01-10T12:28:19;12.27;;;5.30;;
21494;SDS011;10909;53.590;10.054;2023-01-10T12:30:51;7.83;;;4.90;;
21494;SDS011;10909;53.590;10.054;2023-01-10T12:33:28;9.03;;;5.07;;
21494;SDS011;10909;53.590;10.054;2023-01-10T12:41:52;10.67;;;5.53;;
21494;SDS011;10909;53.590;10.054;2023-01-10T12:44:51;10.80;;;5.27;;
21494;SDS011;10909;53.590;10.054;2023-01-10T12:48:02;8.50;;;4.80;;
21494;SDS011;10909;53.590;10.054;2023-01-10T12:50:33;7.37;;;4.43;;
21494;SDS011;10909;53.590;10.054;2023-01-10T12:55:53;8.57;;;4.63;;
21494;SDS011;10909;53.590;10.054;2023-01-10T12:58:47;8.57;;;5.43;;
21494;SDS011;10909;53.590;10.054;2023-01-10T13:01:32;10.17;;;5.30;;
21494;SDS011;10909;53.590;10.054;2023-01-10T13:04:15;10.53;;;5.70;;
21494;SDS011;10909;53.590;10.054;2023-01-10T13:06:46;9.07;;;5.23;;
21494;SDS011;10909;53.590;10.054;2023-01-10T13:09:20;9.57;;;5.33;;
21494;SDS011;10909;53.590;10.054;2023-01-10T13:17:50;10.00;;;4.83;;
21494;SDS011;10909;53.590;10.054;2023-01-10T13:20:39;9.93;;;5.43;;
21494;SDS011;10909;53.590;10.054;2023-01-10T13:23:28;9.27;;;5.07;;
21494;SDS011;10909;53.590;10.054;2023-01-10T13:26:03;8.73;;;4.93;;
21494;SDS011;10909;53.590;10.054;2023-01-10T13:28:33;10.57;;;5.33;;
21494;SDS011;10909;53.590;10.054;2023-01-10T13:31:26;7.83;;;4.87;;
21494;SDS011;10909;53.590;10.054;2023-01-10T13:34:01;6.70;;;4.67;;
21494;SDS011;10909;53.590;10.054;2023-01-10T13:36:50;7.90;;;5.30;;
21494;SDS011;10909;53.590;10.054;2023-01-10T13:39:41;9.93;;;5.37;;
21494;SDS011;10909;53.590;10.054;2023-01-10T13:42:33;9.10;;;5.20;;
21494;SDS011;10909;53.590;10.054;2023-01-10T13:48:02;8.93;;;4.80;;
21494;SDS011;10909;53.590;10.054;2023-01-10T14:00:50;7.50;;;4.73;;
21494;SDS011;10909;53.590;10.054;2023-01-10T14:03:39;8.80;;;4.70;;
21494;SDS011;10909;53.590;10.054;2023-01-10T14:12:00;8.73;;;4.57;;
21494;SDS011;10909;53.590;10.054;2023-01-10T14:14:36;8.40;;;3.97;;
21494;SDS011;10909;53.590;10.054;2023-01-10T14:17:33;9.10;;;4.17;;
21494;SDS011;10909;53.590;10.054;2023-01-10T14:23:25;5.77;;;3.77;;
21494;SDS011;10909;53.590;10.054;2023-01-10T14:26:01;11.33;;;4.00;;
21494;SDS011;10909;53.590;10.054;2023-01-10T14:28:32;5.87;;;3.30;;
21494;SDS011;10909;53.590;10.054;2023-01-10T14:31:23;8.50;;;3.93;;
21494;SDS011;10909;53.590;10.054;2023-01-10T14:33:52;6.20;;;3.67;;
21494;SDS011;10909;53.590;10.054;2023-01-10T14:36:24;5.40;;;3.70;;
21494;SDS011;10909;53.590;10.054;2023-01-10T14:39:00;6.37;;;3.30;;
21494;SDS011;10909;53.590;10.054;2023-01-10T14:41:38;5.30;;;2.90;;
21494;SDS011;10909;53.590;10.054;2023-01-10T14:44:26;7.70;;;3.70;;
21494;SDS011;10909;53.590;10.054;2023-01-10T14:46:58;5.30;;;3.13;;
21494;SDS011;10909;53.590;10.054;2023-01-10T14:49:35;9.83;;;3.17;;
21494;SDS011;10909;53.590;10.054;2023-01-10T14:52:19;7.97;;;3.20;;
21494;SDS011;10909;53.590;10.054;2023-01-10T14:57:38;5.40;;;2.93;;
21494;SDS011;10909;53.590;10.054;2023-01-10T15:00:18;9.60;;;3.23;;
21494;SDS011;10909;53.590;10.054;2023-01-10T15:02:50;8.73;;;3.30;;
21494;SDS011;10909;53.590;10.054;2023-01-10T15:05:24;8.23;;;2.97;;
21494;SDS011;10909;53.590;10.054;2023-01-10T15:07:53;7.20;;;2.90;;
21494;SDS011;10909;53.590;10.054;2023-01-10T15:10:48;4.77;;;2.87;;
21494;SDS011;10909;53.590;10.054;2023-01-10T15:13:20;8.97;;;3.33;;
21494;SDS011;10909;53.590;10.054;2023-01-10T15:15:52;9.00;;;3.87;;
21494;SDS011;10909;53.590;10.054;2023-01-10T15:18:32;6.27;;;3.10;;
21494;SDS011;10909;53.590;10.054;2023-01-10T15:21:11;6.70;;;2.90;;
21494;SDS011;10909;53.590;10.054;2023-01-10T15:23:39;8.33;;;3.07;;
21494;SDS011;10909;53.590;10.054;2023-01-10T15:26:11;7.17;;;4.07;;
21494;SDS011;10909;53.590;10.054;2023-01-10T15:28:44;10.17;;;3.33;;
21494;SDS011;10909;53.590;10.054;2023-01-10T15:31:13;8.57;;;3.13;;
21494;SDS011;10909;53.590;10.054;2023-01-10T15:33:42;6.87;;;3.43;;
21494;SDS011;10909;53.590;10.054;2023-01-10T15:36:14;8.80;;;3.23;;
21494;SDS011;10909;53.590;10.054;2023-01-10T15:38:45;6.17;;;3.20;;
21494;SDS011;10909;53.590;10.054;2023-01-10T15:41:17;7.63;;;3.47;;
21494;SDS011;10909;53.590;10.054;2023-01-10T15:43:46;8.43;;;3.90;;
21494;SDS011;10909;53.590;10.054;2023-01-10T15:46:21;6.90;;;3.27;;
21494;SDS011;10909;53.590;10.054;2023-01-10T15:48:58;8.17;;;3.90;;
21494;SDS011;10909;53.590;10.054;2023-01-10T15:54:26;7.90;;;3.30;;
21494;SDS011;10909;53.590;10.054;2023-01-10T15:56:54;8.93;;;3.40;;
21494;SDS011;10909;53.590;10.054;2023-01-10T16:01:55;6.63;;;3.77;;
21494;SDS011;10909;53.590;10.054;2023-01-10T16:04:32;7.23;;;3.63;;
21494;SDS011;10909;53.590;10.054;2023-01-10T16:07:06;9.10;;;3.97;;
21494;SDS011;10909;53.590;10.054;2023-01-10T16:09:40;7.60;;;3.60;;
21494;SDS011;10909;53.590;10.054;2023-01-10T16:12:20;7.23;;;4.13;;
21494;SDS011;10909;53.590;10.054;2023-01-10T16:15:25;9.53;;;4.37;;
21494;SDS011;10909;53.590;10.054;2023-01-10T16:17:52;8.10;;;4.00;;
21494;SDS011;10909;53.590;10.054;2023-01-10T16:20:19;8.20;;;4.47;;
21494;SDS011;10909;53.590;10.054;2023-01-10T16:22:49;6.00;;;3.50;;
21494;SDS011;10909;53.590;10.054;2023-01-10T16:25:17;6.83;;;3.97;;
21494;SDS011;10909;53.590;10.054;2023-01-10T16:27:46;4.77;;;3.40;;
21494;SDS011;10909;53.590;10.054;2023-01-10T16:30:22;7.50;;;4.63;;
21494;SDS011;10909;53.590;10.054;2023-01-10T16:32:52;8.70;;;4.20;;
21494;SDS011;10909;53.590;10.054;2023-01-10T16:35:19;8.77;;;4.30;;
21494;SDS011;10909;53.590;10.054;2023-01-10T16:37:45;10.70;;;4.47;;
21494;SDS011;10909;53.590;10.054;2023-01-10T16:40:20;10.97;;;4.40;;
21494;SDS011;10909;53.590;10.054;2023-01-10T16:42:51;8.80;;;4.23;;
21494;SDS011;10909;53.590;10.054;2023-01-10T16:45:36;8.50;;;4.40;;
21494;SDS011;10909;53.590;10.054;2023-01-10T16:48:02;9.23;;;4.83;;
21494;SDS011;10909;53.590;10.054;2023-01-10T16:50:28;7.20;;;4.43;;
21494;SDS011;10909;53.590;10.054;2023-01-10T16:52:53;7.57;;;4.33;;
21494;SDS011;10909;53.590;10.054;2023-01-10T16:55:19;11.67;;;4.60;;
21494;SDS011;10909;53.590;10.054;2023-01-10T16:57:49;5.77;;;3.87;;